Time;durP1;ratioP1;P1;durP2;ratioP2;P2;SDS_P1;SDS_P2;PMS_P1;PMS_P2;Temp;Humidity;BMP_temperature;BMP_pressure;BME280_temperature;BME280_humidity;BME280_pressure;Samples;Min_cycle;Max_cycle;Signal;HPM_P1;HPM_P2
2024/01/17 00:03:47;;;;;;;7.90;5.78;;;;;;;;;;10361322;28;20128;-52
2024/01/17 00:08:48;;;;;;;10.00;5.45;;;;;;;;;;10363159;28;20029;-51
2024/01/17 00:13:48;;;;;;;9.32;5.57;;;;;;;;;;10353877;28;20030;-52
2024/01/17 00:18:49;;;;;;;9.50;5.55;;;;;;;;;;10361418;28;20033;-51
2024/01/17 00:23:49;;;;;;;5.38;4.82;;;;;;;;;;10363919;28;20075;-52
2024/01/17 00:28:50;;;;;;;7.22;4.88;;;;;;;;;;10364073;28;20026;-52
2024/01/17 00:33:50;;;;;;;15.82;5.38;;;;;;;;;;10363410;28;20041;-53
2024/01/17 00:38:51;;;;;;;6.90;4.93;;;;;;;;;;10362266;28;20057;-50
2024/01/17 00:43:52;;;;;;;7.25;5.22;;;;;;;;;;10363116;28;20022;-53
2024/01/17 00:48:52;;;;;;;7.90;4.63;;;;;;;;;;10362808;28;20476;-50
2024/01/17 00:53:53;;;;;;;10.95;5.10;;;;;;;;;;10362377;28;20048;-52
2024/01/17 00:58:54;;;;;;;8.55;5.50;;;;;;;;;;10353350;28;20455;-52
2024/01/17 01:03:55;;;;;;;7.18;4.75;;;;;;;;;;10357986;28;20025;-50
2024/01/17 01:08:55;;;;;;;8.02;4.60;;;;;;;;;;10364022;28;20131;-49
2024/01/17 01:13:56;;;;;;;6.68;4.75;;;;;;;;;;10362836;28;20573;-52
2024/01/17 01:18:57;;;;;;;7.82;4.90;;;;;;;;;;10360250;28;20417;-52
2024/01/17 01:23:58;;;;;;;6.72;4.30;;;;;;;;;;10360549;28;20423;-51
2024/01/17 01:28:58;;;;;;;6.22;4.38;;;;;;;;;;10362682;28;20037;-52
2024/01/17 01:33:59;;;;;;;6.53;4.53;;;;;;;;;;10361515;28;20045;-50
2024/01/17 01:38:59;;;;;;;7.05;4.68;;;;;;;;;;10360405;28;20046;-50
2024/01/17 01:44:00;;;;;;;7.82;4.57;;;;;;;;;;10362410;28;20026;-51
2024/01/17 01:49:00;;;;;;;5.30;4.22;;;;;;;;;;10369021;28;20033;-51
2024/01/17 01:54:02;;;;;;;5.05;3.70;;;;;;;;;;10368898;28;20153;-50
2024/01/17 01:59:04;;;;;;;6.38;4.10;;;;;;;;;;10366278;28;20041;-53
2024/01/17 02:04:05;;;;;;;7.57;4.60;;;;;;;;;;10367882;28;20029;-53
2024/01/17 02:09:06;;;;;;;6.97;4.47;;;;;;;;;;10399262;28;20094;-51
2024/01/17 02:14:06;;;;;;;5.60;4.38;;;;;;;;;;10352879;28;20030;-51
2024/01/17 02:19:10;;;;;;;6.88;4.80;;;;;;;;;;10355774;28;20041;-51
2024/01/17 02:24:16;;;;;;;6.35;4.25;;;;;;;;;;10366499;28;20072;-51
2024/01/17 02:29:16;;;;;;;6.65;4.47;;;;;;;;;;10368374;28;20033;-52
2024/01/17 02:34:17;;;;;;;6.13;4.20;;;;;;;;;;10400099;28;20030;-52
2024/01/17 02:39:18;;;;;;;5.63;4.28;;;;;;;;;;10366789;28;20061;-52
2024/01/17 02:44:18;;;;;;;6.38;4.53;;;;;;;;;;10365787;28;20033;-52
2024/01/17 02:49:19;;;;;;;4.22;3.83;;;;;;;;;;10367726;28;20033;-56
2024/01/17 02:54:20;;;;;;;4.97;4.05;;;;;;;;;;10367167;28;20037;-51
2024/01/17 02:59:20;;;;;;;5.40;3.70;;;;;;;;;;10363953;28;20413;-56
2024/01/17 03:04:21;;;;;;;6.03;3.97;;;;;;;;;;10367793;28;20018;-52
2024/01/17 03:09:21;;;;;;;5.18;3.67;;;;;;;;;;10367377;28;20022;-50
2024/01/17 03:14:22;;;;;;;6.65;4.10;;;;;;;;;;10367673;28;20029;-53
2024/01/17 03:19:22;;;;;;;4.85;3.60;;;;;;;;;;10363030;28;20038;-52
2024/01/17 03:24:23;;;;;;;5.28;3.85;;;;;;;;;;10366096;28;20037;-51
2024/01/17 03:29:24;;;;;;;4.38;3.40;;;;;;;;;;10367293;28;20034;-51
2024/01/17 03:34:24;;;;;;;6.97;3.95;;;;;;;;;;10366819;28;20077;-52
2024/01/17 03:39:26;;;;;;;5.43;3.47;;;;;;;;;;10355963;28;20145;-52
2024/01/17 03:44:27;;;;;;;3.95;3.20;;;;;;;;;;10365148;28;20072;-51
2024/01/17 03:49:28;;;;;;;4.43;3.53;;;;;;;;;;10366028;28;20531;-51
2024/01/17 03:54:29;;;;;;;4.82;3.80;;;;;;;;;;10364320;28;20479;-49
2024/01/17 03:59:29;;;;;;;5.30;3.85;;;;;;;;;;10364233;28;20038;-50
2024/01/17 04:04:30;;;;;;;4.28;3.50;;;;;;;;;;10364497;28;20081;-51
2024/01/17 04:09:30;;;;;;;4.63;3.60;;;;;;;;;;10364217;28;20206;-51
2024/01/17 04:14:32;;;;;;;4.70;3.60;;;;;;;;;;10364987;28;20030;-53
2024/01/17 04:19:32;;;;;;;4.00;3.20;;;;;;;;;;10364319;28;20096;-52
2024/01/17 04:24:33;;;;;;;5.30;3.80;;;;;;;;;;10365467;28;20022;-49
2024/01/17 04:29:35;;;;;;;4.82;3.30;;;;;;;;;;10341737;28;20042;-52
2024/01/17 04:34:38;;;;;;;3.78;3.15;;;;;;;;;;10364705;28;20049;-52
2024/01/17 04:39:39;;;;;;;3.95;3.50;;;;;;;;;;10364493;28;20045;-53
2024/01/17 04:44:39;;;;;;;4.40;3.22;;;;;;;;;;10363533;28;20025;-52
2024/01/17 04:49:40;;;;;;;3.40;2.83;;;;;;;;;;10357035;28;20033;-50
2024/01/17 04:54:40;;;;;;;4.07;3.50;;;;;;;;;;10364074;28;20061;-52
2024/01/17 04:59:42;;;;;;;3.58;2.92;;;;;;;;;;10364359;28;20045;-53
2024/01/17 05:04:44;;;;;;;2.95;2.75;;;;;;;;;;10363996;28;20501;-51
2024/01/17 05:09:44;;;;;;;3.97;3.10;;;;;;;;;;10363329;28;20084;-52
2024/01/17 05:14:45;;;;;;;3.15;2.85;;;;;;;;;;10362221;28;20030;-51
2024/01/17 05:19:45;;;;;;;4.15;3.15;;;;;;;;;;10363795;28;20096;-51
2024/01/17 05:24:46;;;;;;;4.10;3.03;;;;;;;;;;10369801;28;20022;-52
2024/01/17 05:29:47;;;;;;;3.63;2.63;;;;;;;;;;10370493;28;20046;-50
2024/01/17 05:34:50;;;;;;;4.13;3.28;;;;;;;;;;10371544;28;20018;-52
2024/01/17 05:39:50;;;;;;;4.25;2.88;;;;;;;;;;10365281;28;20069;-52
2024/01/17 05:44:51;;;;;;;4.38;3.20;;;;;;;;;;10368272;28;20057;-51
2024/01/17 05:49:53;;;;;;;4.13;3.13;;;;;;;;;;10370487;28;20041;-49
2024/01/17 05:54:53;;;;;;;3.80;3.00;;;;;;;;;;10369728;28;20469;-51
2024/01/17 05:59:54;;;;;;;4.05;2.90;;;;;;;;;;10362751;28;20046;-47
2024/01/17 06:04:55;;;;;;;3.42;3.08;;;;;;;;;;10362564;28;20187;-51
2024/01/17 06:09:55;;;;;;;3.60;2.97;;;;;;;;;;10370258;28;20064;-51
2024/01/17 06:14:56;;;;;;;3.65;3.10;;;;;;;;;;10378295;28;20034;-51
2024/01/17 06:19:56;;;;;;;3.20;2.63;;;;;;;;;;10366030;28;20511;-50
2024/01/17 06:24:57;;;;;;;2.83;2.55;;;;;;;;;;10365447;28;20026;-50
2024/01/17 06:29:58;;;;;;;3.47;2.85;;;;;;;;;;10367450;28;20025;-48
2024/01/17 06:34:58;;;;;;;3.72;2.95;;;;;;;;;;10368842;28;20389;-46
2024/01/17 06:39:59;;;;;;;3.17;2.70;;;;;;;;;;10364162;28;20061;-52
2024/01/17 06:44:59;;;;;;;2.70;2.45;;;;;;;;;;10366210;28;20026;-55
2024/01/17 06:50:00;;;;;;;2.88;2.38;;;;;;;;;;10366663;28;20491;-54
2024/01/17 06:55:01;;;;;;;3.72;2.70;;;;;;;;;;10362769;28;20030;-49
2024/01/17 07:00:04;;;;;;;6.03;3.45;;;;;;;;;;10364399;28;20049;-52
2024/01/17 07:05:05;;;;;;;7.05;3.45;;;;;;;;;;10358453;28;20044;-50
2024/01/17 07:10:08;;;;;;;16.27;3.67;;;;;;;;;;10353503;28;20135;-49
2024/01/17 07:15:09;;;;;;;6.57;3.42;;;;;;;;;;10360554;28;20075;-48
2024/01/17 07:20:11;;;;;;;5.85;3.63;;;;;;;;;;10362114;28;20072;-49
2024/01/17 07:25:13;;;;;;;11.55;4.35;;;;;;;;;;10367296;28;20109;-47
2024/01/17 07:30:15;;;;;;;5.72;4.13;;;;;;;;;;10365157;28;20658;-49
2024/01/17 07:35:16;;;;;;;8.90;4.18;;;;;;;;;;10365051;28;20026;-50
2024/01/17 07:40:17;;;;;;;10.10;4.32;;;;;;;;;;10363407;28;20053;-51
2024/01/17 07:45:18;;;;;;;4.85;4.03;;;;;;;;;;10366507;28;20030;-49
2024/01/17 07:50:19;;;;;;;6.97;4.30;;;;;;;;;;10364596;28;20407;-50
2024/01/17 07:55:20;;;;;;;5.30;4.22;;;;;;;;;;10365736;28;20060;-51
2024/01/17 08:00:21;;;;;;;5.70;4.15;;;;;;;;;;10365127;28;20034;-53
2024/01/17 08:05:21;;;;;;;6.65;4.30;;;;;;;;;;10362299;28;20126;-47
2024/01/17 08:10:22;;;;;;;7.28;4.40;;;;;;;;;;10362843;28;20029;-50
2024/01/17 08:15:23;;;;;;;5.13;3.60;;;;;;;;;;10364743;28;20022;-50
2024/01/17 08:20:23;;;;;;;6.13;4.25;;;;;;;;;;10364928;28;20287;-52
2024/01/17 08:25:25;;;;;;;8.15;3.90;;;;;;;;;;10347704;28;20030;-55
2024/01/17 08:30:29;;;;;;;6.97;4.30;;;;;;;;;;10363391;28;20038;-46
2024/01/17 08:35:29;;;;;;;6.10;3.80;;;;;;;;;;10364150;28;20030;-47
2024/01/17 08:40:33;;;;;;;6.88;3.70;;;;;;;;;;10364760;28;20042;-48
2024/01/17 08:45:34;;;;;;;5.53;4.13;;;;;;;;;;10313783;28;20026;-50
2024/01/17 08:50:34;;;;;;;6.03;4.38;;;;;;;;;;10283339;28;20461;-50
2024/01/17 08:55:36;;;;;;;5.88;3.95;;;;;;;;;;10289478;28;20032;-47
2024/01/17 09:00:37;;;;;;;4.32;3.42;;;;;;;;;;10291766;28;20030;-50
2024/01/17 09:05:38;;;;;;;6.18;4.28;;;;;;;;;;10288587;28;20056;-47
2024/01/17 09:10:38;;;;;;;5.72;3.92;;;;;;;;;;10290207;28;20036;-49
2024/01/17 09:15:40;;;;;;;16.35;3.95;;;;;;;;;;10291005;28;20014;-51
2024/01/17 09:20:40;;;;;;;5.45;3.80;;;;;;;;;;10290814;28;20033;-46
2024/01/17 09:25:41;;;;;;;7.25;3.83;;;;;;;;;;10288942;28;20034;-48
2024/01/17 09:30:41;;;;;;;8.57;4.53;;;;;;;;;;10285815;28;20025;-51
2024/01/17 09:35:44;;;;;;;5.57;3.88;;;;;;;;;;10287225;28;20025;-48
2024/01/17 09:40:49;;;;;;;5.35;3.95;;;;;;;;;;10282527;28;20025;-46
2024/01/17 09:45:51;;;;;;;8.60;4.60;;;;;;;;;;10275523;28;20388;-49
2024/01/17 09:50:52;;;;;;;6.22;4.03;;;;;;;;;;10283706;28;20226;-50
2024/01/17 09:55:54;;;;;;;4.72;3.58;;;;;;;;;;10282560;28;20105;-46
2024/01/17 10:00:56;;;;;;;6.28;4.00;;;;;;;;;;10283888;28;20327;-49
2024/01/17 10:05:57;;;;;;;5.70;4.30;;;;;;;;;;10295628;28;20037;-45
2024/01/17 10:10:58;;;;;;;5.85;3.97;;;;;;;;;;10284344;28;20112;-49
2024/01/17 10:16:01;;;;;;;6.85;4.60;;;;;;;;;;10285829;28;20029;-51
2024/01/17 10:21:03;;;;;;;6.13;4.07;;;;;;;;;;10283437;28;20986;-53
2024/01/17 10:26:04;;;;;;;7.40;4.28;;;;;;;;;;10318674;28;20450;-46
2024/01/17 10:31:05;;;;;;;7.45;3.95;;;;;;;;;;10367522;28;20045;-49
2024/01/17 10:36:07;;;;;;;6.45;4.40;;;;;;;;;;10366832;28;20074;-46
2024/01/17 10:41:08;;;;;;;5.90;4.13;;;;;;;;;;10399209;28;20032;-49
2024/01/17 10:46:09;;;;;;;7.85;4.20;;;;;;;;;;10364505;28;20385;-48
2024/01/17 10:51:20;;;;;;;5.53;4.38;;;;;;;;;;10366529;28;20029;-49
2024/01/17 10:56:22;;;;;;;7.55;4.35;;;;;;;;;;10365990;28;20037;-49
2024/01/17 11:01:31;;;;;;;5.30;4.00;;;;;;;;;;10366452;28;20061;-48
2024/01/17 11:06:32;;;;;;;;;;;;;;;;;;10356699;28;20493;-53
2024/01/17 11:11:34;;;;;;;6.97;4.63;;;;;;;;;;10345785;28;20426;-50
2024/01/17 11:16:39;;;;;;;6.65;4.18;;;;;;;;;;10292103;28;20097;-53
2024/01/17 11:21:40;;;;;;;4.68;3.90;;;;;;;;;;10280896;28;20288;-48
2024/01/17 11:26:54;;;;;;;5.32;3.90;;;;;;;;;;10278487;28;20052;-54
2024/01/17 11:32:19;;;;;;;7.95;4.68;;;;;;;;;;10327040;28;20358;-50
2024/01/17 11:37:38;;;;;;;5.63;4.47;;;;;;;;;;10370787;23;20064;-58
2024/01/17 11:42:40;;;;;;;6.40;4.10;;;;;;;;;;10363506;28;20060;-58
2024/01/17 11:47:52;;;;;;;6.07;4.20;;;;;;;;;;10340417;28;20125;-58
2024/01/17 11:52:53;;;;;;;6.57;4.70;;;;;;;;;;10283899;28;20027;-58
2024/01/17 11:57:53;;;;;;;6.07;4.15;;;;;;;;;;10336184;28;20038;-58
2024/01/17 12:02:59;;;;;;;4.80;4.13;;;;;;;;;;10296613;28;20470;-59
2024/01/17 12:08:03;;;;;;;5.05;3.67;;;;;;;;;;10314370;28;20129;-60
2024/01/17 12:13:04;;;;;;;5.75;4.22;;;;;;;;;;10292549;28;20034;-60
2024/01/17 12:18:06;;;;;;;5.43;3.78;;;;;;;;;;10238865;28;20030;-59
2024/01/17 12:23:09;;;;;;;6.57;3.97;;;;;;;;;;10280316;28;20268;-60
2024/01/17 12:28:15;;;;;;;4.57;3.67;;;;;;;;;;10278601;28;20097;-60
2024/01/17 12:33:17;;;;;;;5.47;4.25;;;;;;;;;;10280744;28;20027;-60
2024/01/17 12:38:17;;;;;;;4.65;3.65;;;;;;;;;;10260354;28;20054;-60
2024/01/17 12:43:21;;;;;;;4.38;3.38;;;;;;;;;;10319097;28;20057;-60
2024/01/17 12:48:22;;;;;;;6.43;4.20;;;;;;;;;;10293979;28;20400;-60
2024/01/17 12:53:25;;;;;;;6.28;3.88;;;;;;;;;;10285688;28;20037;-60
2024/01/17 12:58:31;;;;;;;4.10;3.58;;;;;;;;;;10315682;28;20030;-60
2024/01/17 13:03:31;;;;;;;4.68;3.80;;;;;;;;;;10285985;28;20546;-60
2024/01/17 13:08:33;;;;;;;7.85;3.85;;;;;;;;;;10232026;28;20100;-60
2024/01/17 13:13:33;;;;;;;5.72;3.63;;;;;;;;;;10275157;28;20022;-60
2024/01/17 13:18:34;;;;;;;4.18;3.78;;;;;;;;;;10329597;28;20037;-60
2024/01/17 13:23:35;;;;;;;6.88;4.18;;;;;;;;;;10302738;28;20375;-60
2024/01/17 13:28:36;;;;;;;6.80;4.03;;;;;;;;;;10319938;28;20073;-60
2024/01/17 13:33:37;;;;;;;6.38;4.22;;;;;;;;;;10317897;28;20406;-60
2024/01/17 13:38:39;;;;;;;5.25;3.90;;;;;;;;;;10307003;28;20050;-60
2024/01/17 13:43:40;;;;;;;8.13;4.20;;;;;;;;;;10326633;28;20486;-60
2024/01/17 13:48:41;;;;;;;8.20;4.10;;;;;;;;;;10240191;28;20054;-59
2024/01/17 13:53:42;;;;;;;5.75;4.00;;;;;;;;;;10238696;28;20034;-59
2024/01/17 13:58:43;;;;;;;6.07;4.00;;;;;;;;;;10236336;28;20041;-59
2024/01/17 14:03:44;;;;;;;5.82;4.07;;;;;;;;;;10240452;28;20052;-59
2024/01/17 14:08:45;;;;;;;5.88;4.00;;;;;;;;;;10235899;28;20121;-59
2024/01/17 14:13:46;;;;;;;3.65;3.35;;;;;;;;;;10238667;28;20030;-59
2024/01/17 14:18:46;;;;;;;4.60;3.58;;;;;;;;;;10320931;28;20374;-59
2024/01/17 14:23:47;;;;;;;5.88;3.92;;;;;;;;;;10309899;28;20092;-59
2024/01/17 14:28:48;;;;;;;4.38;3.63;;;;;;;;;;10328018;28;20500;-59
2024/01/17 14:33:49;;;;;;;6.82;3.75;;;;;;;;;;10307336;28;20037;-59
2024/01/17 14:38:50;;;;;;;4.78;3.90;;;;;;;;;;10321756;28;20571;-59
2024/01/17 14:43:52;;;;;;;5.82;4.05;;;;;;;;;;10339919;28;20029;-59
2024/01/17 14:48:53;;;;;;;7.55;4.45;;;;;;;;;;10314086;28;20077;-59
2024/01/17 14:53:54;;;;;;;5.80;4.40;;;;;;;;;;10327144;28;20088;-59
2024/01/17 14:58:55;;;;;;;5.55;3.97;;;;;;;;;;10304757;28;20077;-59
2024/01/17 15:03:55;;;;;;;8.52;4.38;;;;;;;;;;10320977;28;20038;-59
2024/01/17 15:08:57;;;;;;;11.20;4.10;;;;;;;;;;10282243;28;20486;-59
2024/01/17 15:13:58;;;;;;;4.85;3.88;;;;;;;;;;10293960;28;20082;-59
2024/01/17 15:18:58;;;;;;;4.88;3.78;;;;;;;;;;10275943;28;20172;-59
2024/01/17 15:24:00;;;;;;;6.53;3.78;;;;;;;;;;10226510;28;20022;-59
2024/01/17 15:29:00;;;;;;;5.90;3.88;;;;;;;;;;10235126;28;20425;-59
2024/01/17 15:34:02;;;;;;;10.32;3.67;;;;;;;;;;10236692;28;20049;-59
2024/01/17 15:39:05;;;;;;;4.90;3.85;;;;;;;;;;10235109;28;21907;-59
2024/01/17 15:44:06;;;;;;;6.55;3.90;;;;;;;;;;10233738;28;20039;-59
2024/01/17 15:49:08;;;;;;;4.25;3.55;;;;;;;;;;10237288;28;20030;-59
2024/01/17 15:54:08;;;;;;;5.18;3.78;;;;;;;;;;10295776;28;20030;-59
2024/01/17 15:59:09;;;;;;;7.95;4.05;;;;;;;;;;10251507;28;20038;-59
2024/01/17 16:04:11;;;;;;;5.68;3.67;;;;;;;;;;10232021;28;20457;-59
2024/01/17 16:09:13;;;;;;;5.80;3.97;;;;;;;;;;10317405;28;20414;-59
2024/01/17 16:14:14;;;;;;;4.72;3.10;;;;;;;;;;10303303;28;20022;-59
2024/01/17 16:19:14;;;;;;;6.95;3.58;;;;;;;;;;10248797;28;20042;-58
2024/01/17 16:24:15;;;;;;;5.30;3.58;;;;;;;;;;10292710;28;20029;-59
2024/01/17 16:29:16;;;;;;;5.45;3.30;;;;;;;;;;10320937;28;20319;-59
2024/01/17 16:34:16;;;;;;;4.85;3.60;;;;;;;;;;10287915;28;20123;-59
2024/01/17 16:39:17;;;;;;;7.47;3.92;;;;;;;;;;10304404;28;20042;-59
2024/01/17 16:44:18;;;;;;;5.43;4.00;;;;;;;;;;10322237;28;20381;-59
2024/01/17 16:49:19;;;;;;;3.92;3.40;;;;;;;;;;10247147;28;20440;-59
2024/01/17 16:54:19;;;;;;;4.78;3.80;;;;;;;;;;10321521;28;20327;-59
2024/01/17 16:59:20;;;;;;;6.43;4.00;;;;;;;;;;10242553;28;20125;-59
2024/01/17 17:04:20;;;;;;;5.00;3.65;;;;;;;;;;10233619;28;20026;-59
2024/01/17 17:09:21;;;;;;;5.32;4.13;;;;;;;;;;10245827;28;20709;-59
2024/01/17 17:14:22;;;;;;;6.57;4.18;;;;;;;;;;10278686;28;20023;-60
2024/01/17 17:19:22;;;;;;;7.40;4.38;;;;;;;;;;10245049;28;20133;-60
2024/01/17 17:24:23;;;;;;;6.30;4.22;;;;;;;;;;10239760;28;20771;-60
2024/01/17 17:29:24;;;;;;;6.53;4.32;;;;;;;;;;10248027;28;21567;-60
2024/01/17 17:34:24;;;;;;;10.10;4.00;;;;;;;;;;10239859;28;20409;-59
2024/01/17 17:39:25;;;;;;;5.70;4.10;;;;;;;;;;10238775;28;21755;-59
2024/01/17 17:44:27;;;;;;;5.70;4.55;;;;;;;;;;10318738;28;20030;-59
2024/01/17 17:49:28;;;;;;;5.70;3.88;;;;;;;;;;10316350;28;20170;-60
2024/01/17 17:54:29;;;;;;;5.53;3.65;;;;;;;;;;10326778;28;20077;-59
2024/01/17 17:59:30;;;;;;;4.78;3.85;;;;;;;;;;10328634;28;20038;-60
2024/01/17 18:04:30;;;;;;;8.23;4.07;;;;;;;;;;10326477;28;20027;-60
2024/01/17 18:09:31;;;;;;;4.93;4.00;;;;;;;;;;10328728;28;20087;-60
2024/01/17 18:14:32;;;;;;;7.45;4.32;;;;;;;;;;10328981;28;20034;-60
2024/01/17 18:19:33;;;;;;;6.82;4.32;;;;;;;;;;10327879;28;20031;-59
2024/01/17 18:24:33;;;;;;;6.63;4.18;;;;;;;;;;10318271;28;20036;-59
2024/01/17 18:29:34;;;;;;;10.02;4.10;;;;;;;;;;10327138;28;20473;-59
2024/01/17 18:34:34;;;;;;;7.90;4.10;;;;;;;;;;10270668;28;20440;-59
2024/01/17 18:39:35;;;;;;;5.05;3.55;;;;;;;;;;10235897;28;20393;-60
2024/01/17 18:44:36;;;;;;;9.30;3.97;;;;;;;;;;10234591;28;20045;-59
2024/01/17 18:49:36;;;;;;;9.15;3.78;;;;;;;;;;10228060;28;20042;-60
2024/01/17 18:54:37;;;;;;;7.57;3.95;;;;;;;;;;10250363;28;20037;-60
2024/01/17 18:59:43;;;;;;;6.18;3.95;;;;;;;;;;10258074;28;20053;-59
2024/01/17 19:04:43;;;;;;;7.13;3.78;;;;;;;;;;10235007;28;20030;-59
2024/01/17 19:09:44;;;;;;;7.30;3.72;;;;;;;;;;10228591;28;20033;-59
2024/01/17 19:14:45;;;;;;;5.68;3.75;;;;;;;;;;10236651;28;20512;-60
2024/01/17 19:19:46;;;;;;;6.25;4.10;;;;;;;;;;10234141;28;21940;-59
2024/01/17 19:24:50;;;;;;;4.55;3.67;;;;;;;;;;10234163;28;20045;-59
2024/01/17 19:29:51;;;;;;;8.82;4.05;;;;;;;;;;10264431;28;20208;-60
2024/01/17 19:34:52;;;;;;;7.88;4.25;;;;;;;;;;10329997;28;20245;-59
2024/01/17 19:39:53;;;;;;;5.18;3.95;;;;;;;;;;10298222;28;20053;-59
2024/01/17 19:44:53;;;;;;;6.47;4.05;;;;;;;;;;10328205;28;20828;-60
2024/01/17 19:49:55;;;;;;;4.75;3.97;;;;;;;;;;10306227;28;20038;-60
2024/01/17 19:54:55;;;;;;;5.72;3.58;;;;;;;;;;10234970;28;20034;-60
2024/01/17 19:59:57;;;;;;;4.70;4.07;;;;;;;;;;10298229;28;20068;-59
2024/01/17 20:04:57;;;;;;;6.70;4.65;;;;;;;;;;10312098;28;20505;-60
2024/01/17 20:10:02;;;;;;;6.72;4.55;;;;;;;;;;10320802;28;20034;-60
2024/01/17 20:15:04;;;;;;;12.30;4.35;;;;;;;;;;10301081;28;20033;-59
2024/01/17 20:20:06;;;;;;;8.63;5.25;;;;;;;;;;10323576;28;20044;-59
2024/01/17 20:25:13;;;;;;;12.13;4.88;;;;;;;;;;10333666;28;20034;-60
2024/01/17 20:30:19;;;;;;;6.22;4.60;;;;;;;;;;10318537;28;20033;-60
2024/01/17 20:35:20;;;;;;;6.82;4.95;;;;;;;;;;10303831;28;21209;-60
2024/01/17 20:40:21;;;;;;;6.10;4.50;;;;;;;;;;10243075;28;20047;-60
2024/01/17 20:45:21;;;;;;;7.10;4.13;;;;;;;;;;10233919;28;20034;-60
2024/01/17 20:50:22;;;;;;;9.23;4.30;;;;;;;;;;10232555;28;20313;-60
2024/01/17 20:55:23;;;;;;;6.50;4.25;;;;;;;;;;10233346;28;20097;-60
2024/01/17 21:00:24;;;;;;;6.78;4.63;;;;;;;;;;10321896;28;20031;-60
2024/01/17 21:05:25;;;;;;;5.75;3.80;;;;;;;;;;10346357;28;20029;-60
2024/01/17 21:10:27;;;;;;;6.97;4.50;;;;;;;;;;10350917;28;20117;-60
2024/01/17 21:15:28;;;;;;;5.78;4.00;;;;;;;;;;10342184;28;20085;-60
2024/01/17 21:20:29;;;;;;;4.28;3.88;;;;;;;;;;10345013;28;20496;-60
2024/01/17 21:25:30;;;;;;;5.00;4.20;;;;;;;;;;10334066;28;20033;-60
2024/01/17 21:30:31;;;;;;;7.25;4.32;;;;;;;;;;10343002;28;20031;-60
2024/01/17 21:35:31;;;;;;;6.28;4.20;;;;;;;;;;10349777;28;20046;-60
2024/01/17 21:40:34;;;;;;;5.88;4.05;;;;;;;;;;10279980;28;20035;-60
2024/01/17 21:45:35;;;;;;;6.20;4.00;;;;;;;;;;10344216;28;20030;-60
2024/01/17 21:50:36;;;;;;;9.00;4.18;;;;;;;;;;10352449;28;20022;-61
2024/01/17 21:55:36;;;;;;;9.98;4.60;;;;;;;;;;10347216;28;20417;-60
2024/01/17 22:00:37;;;;;;;7.30;4.15;;;;;;;;;;10314651;28;20084;-60
2024/01/17 22:05:37;;;;;;;7.60;4.32;;;;;;;;;;10330455;28;20033;-60
2024/01/17 22:10:38;;;;;;;7.10;4.00;;;;;;;;;;10324539;28;20496;-63
2024/01/17 22:15:38;;;;;;;13.82;4.65;;;;;;;;;;10337226;28;20030;-63
2024/01/17 22:20:39;;;;;;;10.02;4.47;;;;;;;;;;10335828;28;20022;-62
2024/01/17 22:25:40;;;;;;;15.60;4.07;;;;;;;;;;10341601;28;20022;-62
2024/01/17 22:30:41;;;;;;;6.25;3.60;;;;;;;;;;10242629;28;20085;-61
2024/01/17 22:35:41;;;;;;;7.57;4.30;;;;;;;;;;10235175;28;21996;-62
2024/01/17 22:40:42;;;;;;;6.03;3.90;;;;;;;;;;10239348;28;20039;-60
2024/01/17 22:45:43;;;;;;;7.88;4.00;;;;;;;;;;10237619;28;20026;-61
2024/01/17 22:50:43;;;;;;;5.35;3.63;;;;;;;;;;10236087;28;20394;-60
2024/01/17 22:55:44;;;;;;;6.85;3.83;;;;;;;;;;10237927;28;21608;-61
2024/01/17 23:00:47;;;;;;;7.20;3.97;;;;;;;;;;10235636;28;20234;-60
2024/01/17 23:05:47;;;;;;;4.97;3.60;;;;;;;;;;10237024;28;20033;-61
2024/01/17 23:10:48;;;;;;;11.73;4.00;;;;;;;;;;10264536;28;20042;-61
2024/01/17 23:15:49;;;;;;;8.85;3.47;;;;;;;;;;10339461;28;20030;-61
2024/01/17 23:20:49;;;;;;;18.15;3.97;;;;;;;;;;10322831;28;20038;-60
2024/01/17 23:25:50;;;;;;;6.82;3.70;;;;;;;;;;10297096;28;20030;-60
2024/01/17 23:30:50;;;;;;;8.38;3.30;;;;;;;;;;10330539;28;20038;-60
2024/01/17 23:35:51;;;;;;;7.28;3.92;;;;;;;;;;10327713;28;20046;-61
2024/01/17 23:40:52;;;;;;;7.38;3.50;;;;;;;;;;10333924;28;20050;-61
2024/01/17 23:45:52;;;;;;;5.50;3.40;;;;;;;;;;10328229;28;20084;-62
2024/01/17 23:50:53;;;;;;;7.70;3.33;;;;;;;;;;10335536;28;20026;-62
2024/01/17 23:55:54;;;;;;;4.65;3.38;;;;;;;;;;10328758;28;20015;-59
